createdAt,value
2023-01-08T00:01:57.458Z,109.60
2023-01-08T00:04:24.090Z,94.77
2023-01-08T00:06:52.307Z,79.67
2023-01-08T00:09:19.018Z,95.30
2023-01-08T00:14:30.422Z,114.30
2023-01-08T00:19:42.276Z,93.83
2023-01-08T00:22:08.877Z,81.33
2023-01-08T00:24:35.506Z,88.47
2023-01-08T00:27:02.058Z,149.03
2023-01-08T00:29:28.734Z,139.80
2023-01-08T00:31:55.929Z,115.67
2023-01-08T00:34:22.625Z,139.50
2023-01-08T00:36:49.399Z,125.27
2023-01-08T00:39:16.060Z,112.20
2023-01-08T00:41:45.393Z,122.10
2023-01-08T00:44:12.086Z,99.67
2023-01-08T00:46:40.945Z,172.60
2023-01-08T00:49:07.575Z,124.17
2023-01-08T00:54:19.673Z,136.57
2023-01-08T00:59:30.581Z,96.03
2023-01-08T01:01:57.314Z,99.47
2023-01-08T01:04:25.400Z,115.87
2023-01-08T01:06:52.896Z,119.37
2023-01-08T01:09:19.575Z,159.87
2023-01-08T01:11:46.129Z,137.80
2023-01-08T01:14:12.810Z,104.60
2023-01-08T01:19:25.537Z,186.10
2023-01-08T01:24:36.370Z,143.13
2023-01-08T01:27:03.456Z,83.17
2023-01-08T01:29:30.208Z,138.17
2023-01-08T01:31:57.707Z,137.27
2023-01-08T01:34:24.474Z,132.70
2023-01-08T01:36:51.524Z,193.73
2023-01-08T01:39:19.966Z,207.87
2023-01-08T02:19:33.320Z,231.20
2023-01-08T02:22:10.683Z,177.73
2023-01-08T02:24:56.525Z,201.10
2023-01-08T02:27:24.220Z,168.27
2023-01-08T02:29:51.686Z,213.00
2023-01-08T02:32:18.335Z,126.90
2023-01-08T02:34:44.940Z,198.40
2023-01-08T02:37:11.549Z,218.80
2023-01-08T02:39:40.902Z,148.83
2023-01-08T02:42:07.509Z,191.97
2023-01-08T02:44:57.389Z,170.40
2023-01-08T02:47:38.416Z,106.43
2023-01-08T02:53:02.129Z,121.97
2023-01-08T02:55:28.710Z,170.10
2023-01-08T02:57:55.355Z,207.67
2023-01-08T03:00:21.964Z,168.73
2023-01-08T03:02:50.599Z,207.13
2023-01-08T03:05:21.641Z,227.67
2023-01-08T03:07:48.394Z,171.37
2023-01-08T03:10:15.019Z,178.63
2023-01-08T03:12:50.538Z,125.73
2023-01-08T03:15:19.567Z,187.60
2023-01-08T03:17:47.007Z,182.00
2023-01-08T03:20:15.325Z,177.27
2023-01-08T03:22:42.212Z,121.93
2023-01-08T03:25:08.927Z,152.37
2023-01-08T03:27:37.943Z,106.10
2023-01-08T03:30:05.312Z,155.53
2023-01-08T03:32:31.880Z,109.03
2023-01-08T03:34:58.666Z,202.90
2023-01-08T03:37:26.337Z,124.60
2023-01-08T03:39:54.791Z,120.47
2023-01-08T03:42:21.352Z,186.33
2023-01-08T03:44:48.027Z,114.03
2023-01-08T03:47:14.613Z,130.10
2023-01-08T03:49:41.207Z,133.73
2023-01-08T03:54:51.883Z,91.83
2023-01-08T03:57:18.526Z,140.63
2023-01-08T03:59:45.180Z,109.33
2023-01-08T04:02:11.892Z,106.47
2023-01-08T04:04:38.641Z,105.27
2023-01-08T04:07:05.281Z,110.00
2023-01-08T04:09:31.909Z,103.17
2023-01-08T04:11:58.545Z,100.30
2023-01-08T04:14:25.243Z,102.17
2023-01-08T04:16:53.307Z,93.53
2023-01-08T04:19:20.103Z,94.80
2023-01-08T04:21:46.786Z,92.03
2023-01-08T04:24:13.529Z,98.87
2023-01-08T04:26:40.127Z,88.33
2023-01-08T04:29:06.777Z,90.27
2023-01-08T04:31:33.327Z,89.47
2023-01-08T04:34:00.032Z,87.90
2023-01-08T04:36:26.592Z,83.80
2023-01-08T04:38:53.264Z,90.17
2023-01-08T04:44:04.099Z,88.10
2023-01-08T04:46:30.720Z,89.07
2023-01-08T04:48:57.445Z,95.80
2023-01-08T04:51:25.885Z,93.87
2023-01-08T04:56:36.546Z,89.30
2023-01-08T04:59:03.286Z,99.57
2023-01-08T05:01:30.052Z,94.40
2023-01-08T05:03:59.781Z,87.17
2023-01-08T05:09:11.864Z,79.97
2023-01-08T05:11:38.571Z,86.33
2023-01-08T05:14:05.342Z,86.67
2023-01-08T05:16:32.202Z,82.57
2023-01-08T05:21:43.500Z,79.33
2023-01-08T05:26:54.342Z,84.67
2023-01-08T05:29:20.945Z,88.30
2023-01-08T05:31:47.721Z,93.67
2023-01-08T05:34:14.406Z,92.40
2023-01-08T05:39:25.258Z,86.70
2023-01-08T05:44:36.171Z,95.40
2023-01-08T05:47:03.014Z,87.83
2023-01-08T05:49:29.662Z,96.87
2023-01-08T05:51:56.237Z,87.23
2023-01-08T05:54:22.911Z,97.07
2023-01-08T05:56:49.496Z,96.17
2023-01-08T05:59:16.241Z,101.73
2023-01-08T06:01:42.904Z,105.70
2023-01-08T06:04:09.670Z,97.33
2023-01-08T06:06:36.297Z,103.13
2023-01-08T06:09:02.950Z,109.33
2023-01-08T06:11:29.584Z,107.40
2023-01-08T06:13:56.286Z,104.03
2023-01-08T06:19:06.672Z,100.50
2023-01-08T06:24:17.599Z,103.23
2023-01-08T06:26:44.208Z,111.20
2023-01-08T06:29:10.908Z,110.03
2023-01-08T06:31:37.529Z,109.23
2023-01-08T06:34:04.201Z,102.23
2023-01-08T06:36:30.728Z,99.77
2023-01-08T06:38:57.395Z,98.50
2023-01-08T06:41:23.997Z,100.70
2023-01-08T06:43:50.641Z,98.00
2023-01-08T06:46:17.234Z,105.30
2023-01-08T06:48:43.963Z,94.83
2023-01-08T06:51:11.953Z,87.00
2023-01-08T06:53:38.619Z,86.40
2023-01-08T06:56:07.590Z,91.90
2023-01-08T06:58:34.342Z,94.40
2023-01-08T07:01:00.920Z,92.60
2023-01-08T07:06:21.306Z,99.17
2023-01-08T07:08:48.301Z,95.80
2023-01-08T07:11:14.888Z,91.57
2023-01-08T07:13:41.643Z,98.80
2023-01-08T07:16:08.818Z,96.23
2023-01-08T07:18:36.159Z,94.30
2023-01-08T07:21:03.479Z,90.93
2023-01-08T07:23:30.204Z,98.33
2023-01-08T07:25:59.764Z,103.17
2023-01-08T07:28:26.375Z,112.73
2023-01-08T07:30:52.959Z,96.47
2023-01-08T07:33:19.601Z,105.13
2023-01-08T07:35:55.432Z,106.27
2023-01-08T07:38:22.229Z,101.63
2023-01-08T07:40:48.825Z,95.63
2023-01-08T07:43:15.518Z,90.70
2023-01-08T07:45:42.186Z,90.80
2023-01-08T07:48:10.668Z,96.10
2023-01-08T07:53:21.763Z,87.70
2023-01-08T07:55:48.344Z,83.93
2023-01-08T07:58:15.004Z,100.70
2023-01-08T08:00:41.621Z,87.57
2023-01-08T08:03:09.427Z,87.97
2023-01-08T08:05:36.117Z,82.73
2023-01-08T08:08:02.795Z,86.10
2023-01-08T08:10:29.416Z,68.30
2023-01-08T08:12:56.022Z,87.10
2023-01-08T08:15:23.091Z,98.63
2023-01-08T08:17:49.965Z,91.77
2023-01-08T08:20:16.727Z,91.10
2023-01-08T08:22:43.295Z,88.83
2023-01-08T08:25:10.049Z,85.40
2023-01-08T08:27:36.761Z,88.20
2023-01-08T08:30:04.547Z,83.10
2023-01-08T08:35:15.267Z,80.70
2023-01-08T08:40:26.380Z,68.60
2023-01-08T08:42:59.586Z,92.03
2023-01-08T08:45:26.409Z,82.90
2023-01-08T08:47:52.984Z,89.67
2023-01-08T08:50:19.738Z,86.17
2023-01-08T08:52:46.493Z,82.00
2023-01-08T08:55:16.056Z,82.10
2023-01-08T08:57:43.038Z,79.87
2023-01-08T09:00:10.095Z,80.00
2023-01-08T09:02:37.068Z,82.43
2023-01-08T09:05:03.925Z,78.97
2023-01-08T09:07:30.571Z,89.33
2023-01-08T09:09:57.339Z,79.83
2023-01-08T09:15:08.185Z,85.80
2023-01-08T09:20:21.154Z,80.40
2023-01-08T09:22:48.003Z,86.83
2023-01-08T09:25:15.389Z,81.70
2023-01-08T09:27:42.094Z,80.93
2023-01-08T09:30:09.073Z,81.87
2023-01-08T09:32:35.701Z,78.60
2023-01-08T09:35:02.350Z,85.03
2023-01-08T09:37:29.106Z,74.13
2023-01-08T09:40:02.265Z,73.20
2023-01-08T09:42:29.693Z,81.17
2023-01-08T09:44:56.306Z,87.80
2023-01-08T09:47:34.786Z,77.57
2023-01-08T09:50:02.417Z,78.17
2023-01-08T09:52:29.617Z,90.80
2023-01-08T09:57:40.949Z,75.30
2023-01-08T10:00:30.761Z,76.90
2023-01-08T10:02:58.034Z,81.03
2023-01-08T10:05:25.823Z,80.13
2023-01-08T10:07:53.482Z,75.73
2023-01-08T10:10:21.133Z,83.40
2023-01-08T10:12:48.105Z,90.07
2023-01-08T10:15:16.006Z,83.97
2023-01-08T10:17:42.649Z,82.60
2023-01-08T10:20:12.745Z,80.80
2023-01-08T10:22:39.628Z,83.80
2023-01-08T10:25:10.550Z,80.17
2023-01-08T10:30:41.719Z,89.87
2023-01-08T10:33:12.218Z,92.27
2023-01-08T10:35:39.319Z,82.57
2023-01-08T10:38:05.960Z,81.77
2023-01-08T10:40:44.362Z,79.97
2023-01-08T10:43:17.933Z,77.97
2023-01-08T10:45:44.867Z,75.20
2023-01-08T10:48:17.878Z,66.33
2023-01-08T10:50:44.535Z,83.60
2023-01-08T10:53:24.543Z,78.53
2023-01-08T10:58:48.131Z,80.97
2023-01-08T11:01:24.225Z,77.37
2023-01-08T11:03:51.336Z,83.23
2023-01-08T11:06:20.189Z,86.73
2023-01-08T11:08:51.657Z,79.67
2023-01-08T11:11:18.423Z,81.43
2023-01-08T11:16:45.078Z,82.80
2023-01-08T11:19:16.422Z,83.07
2023-01-08T11:21:43.193Z,83.73
2023-01-08T11:27:10.216Z,79.93
2023-01-08T11:29:55.834Z,87.43
2023-01-08T11:32:29.373Z,79.97
2023-01-08T11:34:56.154Z,81.17
2023-01-08T11:37:29.595Z,78.87
2023-01-08T11:39:56.516Z,86.00
2023-01-08T11:42:42.051Z,66.23
2023-01-08T11:45:12.104Z,82.63
2023-01-08T11:47:44.888Z,76.77
2023-01-08T11:50:11.561Z,80.57
2023-01-08T11:52:42.213Z,87.83
2023-01-08T11:58:23.230Z,72.47
2023-01-08T12:00:57.118Z,73.70
2023-01-08T12:03:34.575Z,77.67
2023-01-08T12:08:58.530Z,86.77
2023-01-08T12:11:31.673Z,75.33
2023-01-08T12:13:58.397Z,77.97
2023-01-08T12:16:43.928Z,81.10
2023-01-08T12:19:15.268Z,80.23
2023-01-08T12:21:41.892Z,81.70
2023-01-08T12:24:26.985Z,80.90
2023-01-08T12:27:06.774Z,69.87
2023-01-08T12:29:45.795Z,76.83
2023-01-08T12:32:12.580Z,82.83
2023-01-08T12:34:42.348Z,83.03
2023-01-08T12:37:14.596Z,81.60
2023-01-08T12:39:49.539Z,77.77
2023-01-08T12:42:17.503Z,80.70
2023-01-08T12:44:44.399Z,84.30
2023-01-08T12:47:14.361Z,87.70
2023-01-08T12:49:43.398Z,71.00
2023-01-08T12:52:16.344Z,73.03
2023-01-08T12:57:40.800Z,58.27
2023-01-08T13:00:17.830Z,83.17
2023-01-08T13:02:48.203Z,85.33
2023-01-08T13:05:14.910Z,80.60
2023-01-08T13:07:46.929Z,73.37
2023-01-08T13:10:41.125Z,82.93
2023-01-08T13:15:52.750Z,73.47
2023-01-08T13:18:19.908Z,79.90
2023-01-08T13:21:04.903Z,81.67
2023-01-08T13:26:16.711Z,81.27
2023-01-08T13:28:44.708Z,89.80
2023-01-08T13:31:20.257Z,87.23
2023-01-08T13:33:48.776Z,81.43
2023-01-08T13:36:16.677Z,86.67
2023-01-08T13:38:43.677Z,78.13
2023-01-08T13:41:26.398Z,84.03
2023-01-08T13:44:04.407Z,78.70
2023-01-08T13:49:23.821Z,83.47
2023-01-08T13:51:51.223Z,84.90
2023-01-08T13:54:19.351Z,83.43
2023-01-08T13:56:46.804Z,80.87
2023-01-08T13:59:21.750Z,86.80
2023-01-08T14:01:55.479Z,82.93
2023-01-08T14:04:22.972Z,89.43
2023-01-08T14:06:52.095Z,86.40
2023-01-08T14:12:09.451Z,87.50
2023-01-08T14:14:36.051Z,76.60
2023-01-08T14:17:03.235Z,89.37
2023-01-08T14:19:29.826Z,89.50
2023-01-08T14:21:59.608Z,87.50
2023-01-08T14:24:26.227Z,81.00
2023-01-08T14:26:56.788Z,77.67
2023-01-08T14:32:20.588Z,81.03
2023-01-08T14:34:47.860Z,81.20
2023-01-08T14:37:14.960Z,83.40
2023-01-08T14:39:41.677Z,76.93
2023-01-08T14:42:27.518Z,80.67
2023-01-08T14:44:58.284Z,81.40
2023-01-08T14:47:26.134Z,93.43
2023-01-08T14:49:53.360Z,74.70
2023-01-08T14:52:21.560Z,64.40
2023-01-08T14:54:49.637Z,85.93
2023-01-08T14:57:17.828Z,73.03
2023-01-08T14:59:44.704Z,82.77
2023-01-08T15:02:18.874Z,69.83
2023-01-08T15:04:46.852Z,66.30
2023-01-08T15:07:19.433Z,77.87
2023-01-08T15:09:54.975Z,74.90
2023-01-08T15:12:28.669Z,75.13
2023-01-08T15:14:56.052Z,72.03
2023-01-08T15:17:24.150Z,69.20
2023-01-08T15:22:41.473Z,75.90
2023-01-08T15:25:15.374Z,72.40
2023-01-08T15:27:42.928Z,76.20
2023-01-08T15:30:24.066Z,63.67
2023-01-08T15:32:50.799Z,65.87
2023-01-08T15:35:18.257Z,67.13
2023-01-08T15:37:45.276Z,72.80
2023-01-08T15:40:12.390Z,69.17
2023-01-08T15:42:58.301Z,52.53
2023-01-08T15:45:29.396Z,76.87
2023-01-08T15:47:56.695Z,67.47
2023-01-08T15:50:24.703Z,67.37
2023-01-08T15:52:52.669Z,71.47
2023-01-08T15:55:22.851Z,72.70
2023-01-08T15:57:49.859Z,66.40
2023-01-08T16:00:17.659Z,69.30
2023-01-08T16:02:46.820Z,66.10
2023-01-08T16:05:15.134Z,68.70
2023-01-08T16:07:42.384Z,67.93
2023-01-08T16:10:11.021Z,64.87
2023-01-08T16:12:38.587Z,70.30
2023-01-08T16:15:08.357Z,61.73
2023-01-08T16:17:36.814Z,67.43
2023-01-08T16:20:04.647Z,63.93
2023-01-08T16:22:31.685Z,68.87
2023-01-08T16:24:58.788Z,67.17
2023-01-08T16:27:25.775Z,52.07
2023-01-08T16:29:55.293Z,55.07
2023-01-08T16:32:23.462Z,67.07
2023-01-08T16:34:50.189Z,66.90
2023-01-08T16:37:17.318Z,63.23
2023-01-08T16:39:44.187Z,56.47
2023-01-08T16:42:12.095Z,62.23
2023-01-08T16:44:39.600Z,56.90
2023-01-08T16:47:06.630Z,66.60
2023-01-08T16:49:33.974Z,63.80
2023-01-08T16:52:01.014Z,67.40
2023-01-08T16:57:12.288Z,69.97
2023-01-08T16:59:38.933Z,59.03
2023-01-08T17:02:05.678Z,70.40
2023-01-08T17:04:34.004Z,68.17
2023-01-08T17:07:00.808Z,64.00
2023-01-08T17:09:27.525Z,65.77
2023-01-08T17:11:54.378Z,70.07
2023-01-08T17:14:21.354Z,68.20
2023-01-08T17:16:50.293Z,73.30
2023-01-08T17:19:17.340Z,63.70
2023-01-08T17:21:46.762Z,68.70
2023-01-08T17:24:17.817Z,67.00
2023-01-08T17:26:48.209Z,60.60
2023-01-08T17:32:00.308Z,76.33
2023-01-08T17:34:28.180Z,55.17
2023-01-08T17:36:56.508Z,69.10
2023-01-08T17:39:23.245Z,62.97
2023-01-08T17:44:54.469Z,67.83
2023-01-08T17:50:06.055Z,72.87
2023-01-08T17:52:33.605Z,69.87
2023-01-08T17:55:00.339Z,67.40
2023-01-08T17:57:27.388Z,55.33
2023-01-08T17:59:54.187Z,70.47
2023-01-08T18:02:20.917Z,71.53
2023-01-08T18:04:50.289Z,69.17
2023-01-08T18:07:17.089Z,69.80
2023-01-08T18:09:45.130Z,67.17
2023-01-08T18:12:11.905Z,68.23
2023-01-08T18:14:41.599Z,73.73
2023-01-08T18:17:10.021Z,72.20
2023-01-08T18:19:37.101Z,70.30
2023-01-08T18:22:04.336Z,64.83
2023-01-08T18:24:33.204Z,68.00
2023-01-08T18:27:00.320Z,67.33
2023-01-08T18:32:12.701Z,55.03
2023-01-08T18:34:40.627Z,69.37
2023-01-08T18:37:09.068Z,58.83
2023-01-08T18:39:35.806Z,72.17
2023-01-08T18:42:21.373Z,64.07
2023-01-08T18:44:52.605Z,65.57
2023-01-08T18:47:24.108Z,66.57
2023-01-08T18:49:55.306Z,66.70
2023-01-08T18:52:25.036Z,67.80
2023-01-08T18:54:53.277Z,63.67
2023-01-08T18:57:21.494Z,68.10
2023-01-08T18:59:49.551Z,68.70
2023-01-08T19:02:21.444Z,71.13
2023-01-08T19:04:48.903Z,69.67
2023-01-08T19:07:15.817Z,54.63
2023-01-08T19:09:46.487Z,76.17
2023-01-08T19:12:17.246Z,68.27
2023-01-08T19:14:47.008Z,67.37
2023-01-08T19:17:14.008Z,68.10
2023-01-08T19:22:28.629Z,70.70
2023-01-08T19:24:55.936Z,48.00
2023-01-08T19:27:24.420Z,59.97
2023-01-08T19:29:53.819Z,71.37
2023-01-08T19:32:22.105Z,65.33
2023-01-08T19:34:49.033Z,69.63
2023-01-08T19:37:16.268Z,66.93
2023-01-08T19:39:44.935Z,66.87
2023-01-08T19:42:34.518Z,63.70
2023-01-08T19:45:02.921Z,67.23
2023-01-08T19:47:36.087Z,62.90
2023-01-08T19:50:03.290Z,66.27
2023-01-08T19:52:34.209Z,67.27
2023-01-08T19:57:49.349Z,65.60
2023-01-08T20:00:22.496Z,63.60
2023-01-08T20:02:50.034Z,65.53
2023-01-08T20:05:17.346Z,63.60
2023-01-08T20:07:45.384Z,71.43
2023-01-08T20:10:12.138Z,64.13
2023-01-08T20:12:40.273Z,54.93
2023-01-08T20:15:08.547Z,63.87
2023-01-08T20:17:35.498Z,63.30
2023-01-08T20:20:05.489Z,64.07
2023-01-08T20:25:22.856Z,69.40
2023-01-08T20:27:50.921Z,62.27
2023-01-08T20:30:19.115Z,68.53
2023-01-08T20:32:45.810Z,72.67
2023-01-08T20:35:12.466Z,56.90
2023-01-08T20:37:39.261Z,63.23
2023-01-08T20:40:06.206Z,62.17
2023-01-08T20:45:17.053Z,63.47
2023-01-08T20:47:43.700Z,55.10
2023-01-08T20:50:20.036Z,65.87
2023-01-08T20:55:32.472Z,64.03
2023-01-08T20:58:00.190Z,65.50
2023-01-08T21:00:26.939Z,67.50
2023-01-08T21:02:55.877Z,62.63
2023-01-08T21:05:22.626Z,65.77
2023-01-08T21:07:50.880Z,63.77
2023-01-08T21:10:20.080Z,64.33
2023-01-08T21:12:47.229Z,71.00
2023-01-08T21:15:13.969Z,61.70
2023-01-08T21:17:40.574Z,66.70
2023-01-08T21:20:08.187Z,59.40
2023-01-08T21:22:34.805Z,68.30
2023-01-08T21:25:01.428Z,67.67
2023-01-08T21:27:29.326Z,64.40
2023-01-08T21:29:56.078Z,65.53
2023-01-08T21:32:22.686Z,63.80
2023-01-08T21:37:33.744Z,63.53
2023-01-08T21:40:00.933Z,62.73
2023-01-08T21:42:45.946Z,65.03
2023-01-08T21:48:10.422Z,59.63
2023-01-08T21:50:37.112Z,68.20
2023-01-08T21:53:22.186Z,65.93
2023-01-08T21:55:48.924Z,68.60
2023-01-08T21:58:15.606Z,65.00
2023-01-08T22:00:42.767Z,67.70
2023-01-08T22:03:09.429Z,65.27
2023-01-08T22:05:36.095Z,64.33
2023-01-08T22:08:05.304Z,66.80
2023-01-08T22:13:15.827Z,70.53
2023-01-08T22:18:26.718Z,68.17
2023-01-08T22:23:43.836Z,64.77
2023-01-08T22:26:11.605Z,61.70
2023-01-08T22:28:41.333Z,60.77
2023-01-08T22:31:11.386Z,64.03
2023-01-08T22:33:38.371Z,63.60
2023-01-08T22:36:05.724Z,59.40
2023-01-08T22:38:32.363Z,62.47
2023-01-08T22:40:59.278Z,68.17
2023-01-08T22:43:25.894Z,63.40
2023-01-08T22:45:53.204Z,64.03
2023-01-08T22:48:22.206Z,67.93
2023-01-08T22:50:51.925Z,66.73
2023-01-08T22:53:18.576Z,69.57
2023-01-08T22:55:48.548Z,64.10
2023-01-08T22:58:15.542Z,67.67
2023-01-08T23:00:42.224Z,65.53
2023-01-08T23:03:08.973Z,62.00
2023-01-08T23:05:35.635Z,67.40
2023-01-08T23:08:04.476Z,71.83
2023-01-08T23:10:31.243Z,72.57
2023-01-08T23:12:57.912Z,69.10
2023-01-08T23:15:24.730Z,70.10
2023-01-08T23:17:52.383Z,67.77
2023-01-08T23:20:19.797Z,70.43
2023-01-08T23:22:46.875Z,68.00
2023-01-08T23:25:13.528Z,73.47
2023-01-08T23:27:40.161Z,73.47
2023-01-08T23:30:06.910Z,70.57
2023-01-08T23:32:33.990Z,71.33
2023-01-08T23:35:00.581Z,65.23
2023-01-08T23:37:27.236Z,69.40
2023-01-08T23:39:53.947Z,68.97
2023-01-08T23:42:20.712Z,70.80
2023-01-08T23:44:48.781Z,73.10
2023-01-08T23:47:15.432Z,65.93
2023-01-08T23:49:42.020Z,70.43
2023-01-08T23:52:08.649Z,72.87
2023-01-08T23:54:35.969Z,74.23
2023-01-08T23:57:02.729Z,73.13
2023-01-08T23:59:29.353Z,70.50
